EGBBLGZA

Guest
Details From EGBB - Birmingham
To LGZA - Zakinthos Dionysios Solomos
Flight Number -
Tags Generated
Created
Modified
Stats Distance 1,293 nm / 2,395 km
Max Altitude 0 ft / 0 m
Waypoints 7
Social Downloads 1
Likes 0
Share VATSIM

Download

Looking for another format? Having issues loading an existing format? Contact us
Advertisement - Login to hide

Notes

Generated

Route

EGBB ELVES ZH569 AMLON BAR80 KFN LGZA

ID Type Via Altitude Latitude Longitude Leg Dist Tot Dist Heading (true) Name
O EGBB APT - 0 ft / 0 m 52.45113˚ -1.75493˚ - 0 nm - -
ELVES FIX - 0 ft / 0 m 49.79639˚ 3.96500˚ 268 nm 268 nm 124° / 129° -
ZH569 FIX - 0 ft / 0 m 47.40000˚ 8.23167˚ 222 nm 490 nm 129° / 132° -
AMLON FIX - 0 ft / 0 m 44.33917˚ 12.87639˚ 267 nm 757 nm 132° / 135° -
BAR80 FIX - 0 ft / 0 m 41.17273˚ 17.01639˚ 263 nm 1021 nm 135° / 138° -
KFN VOR - 0 ft / 0 m 38.11306˚ 20.50472˚ 244 nm 1265 nm 138° / 140° KEFALLINIA VOR-DME
O LGZA APT - 0 ft / 0 m 37.76048˚ 20.88054˚ 27 nm 1293 nm 140° / 140° -

Altitude Profile

Advertisement - Login to hide

Weather


0- 5 10 15 20 25 30 35+ Temperature / ° C

Clouds and Precipitation
Forecast for 2017-12-11 12:00 UTC. Updated 9 minutes ago

Ground ~20,000 ft ~40,000 ft Winds

EGBB

Details ICAO EGBB (BHX)
Name Birmingham
Region United Kingdom
Timezone Europe/London (UTC+0.0)
Stats Elevation 327 ft / 100 m (AMSL)
Location 52.455966° -1.750378°
Runways 1
Magnetic Variation 1.141° W

METAR

EGBB 110720Z 36009KT 9999 FEW020 BKN043 M01/M01 Q0984 R33/2/0095

Decode

TAF

TAF AMD EGBB 110702Z 1107/1206 02010KT 9999 SCT040 BECMG 1116/1119 30005KT 6000 TEMPO 1116/1206 3000 BR PROB40 1203/1206 0300 FZFG VV///

Decode

Departure Runways

ID Width Length Bearing (true) Bearing (mag) Surface Threshold Offset Overrun Length
15 151 ft / 46 m 8,477 ft / 2,584 m 145.87° 147.01° Asphalt 925 ft / 282 m 0 ft / 0 m
33 151 ft / 46 m 8,477 ft / 2,584 m 325.89° 327.03° Asphalt 958 ft / 292 m 0 ft / 0 m

LGZA

Details ICAO LGZA (ZTH)
Name Dionysios Solomos
Region Greece
Timezone Europe/Athens (UTC+2.0)
Stats Elevation 14 ft / 4 m (AMSL)
Location 37.751230° 20.884106°
Runways 1
Magnetic Variation 4.071° E

METAR

LGZA 110650Z 00000KT 9999 SCT025 BKN070 09/08 Q1023

Decode

TAF

Not found

Destination Runways

ID Width Length Bearing (true) Bearing (mag) Surface Threshold Offset Overrun Length
16 148 ft / 45 m 7,315 ft / 2,230 m 163.49° 159.42° Asphalt 715 ft / 218 m 112 ft / 34 m
34 148 ft / 45 m 7,315 ft / 2,230 m 343.49° 339.42° Asphalt 728 ft / 222 m 135 ft / 41 m

Popular Alternatives